createdAt,value
2023-02-17T00:01:19.885Z,10.40
2023-02-17T00:03:46.765Z,10.40
2023-02-17T00:06:13.583Z,10.40
2023-02-17T00:08:40.359Z,10.40
2023-02-17T00:11:07.154Z,10.40
2023-02-17T00:13:33.905Z,10.40
2023-02-17T00:16:00.683Z,10.40
2023-02-17T00:18:27.403Z,10.40
2023-02-17T00:20:54.013Z,10.40
2023-02-17T00:23:20.663Z,10.40
2023-02-17T00:25:47.308Z,10.30
2023-02-17T00:28:14.015Z,10.40
2023-02-17T00:30:40.654Z,10.40
2023-02-17T00:33:07.293Z,10.30
2023-02-17T00:35:33.963Z,10.40
2023-02-17T00:38:00.573Z,10.30
2023-02-17T00:40:27.244Z,10.30
2023-02-17T00:42:53.891Z,10.30
2023-02-17T00:45:20.649Z,10.30
2023-02-17T00:47:47.467Z,10.40
2023-02-17T00:50:14.064Z,10.30
2023-02-17T00:52:40.890Z,10.30
2023-02-17T00:55:07.759Z,10.30
2023-02-17T00:57:34.436Z,10.30
2023-02-17T01:00:01.074Z,10.30
2023-02-17T01:02:27.791Z,10.30
2023-02-17T01:04:54.515Z,10.30
2023-02-17T01:07:21.286Z,10.30
2023-02-17T01:09:47.971Z,10.30
2023-02-17T01:12:14.701Z,10.20
2023-02-17T01:14:41.373Z,10.20
2023-02-17T01:17:08.097Z,10.20
2023-02-17T01:19:34.758Z,10.20
2023-02-17T01:22:01.438Z,10.20
2023-02-17T01:24:28.151Z,10.20
2023-02-17T01:26:55.134Z,10.20
2023-02-17T01:29:21.731Z,10.20
2023-02-17T01:31:48.382Z,10.20
2023-02-17T01:34:15.104Z,10.20
2023-02-17T01:36:41.747Z,10.20
2023-02-17T01:39:08.338Z,10.20
2023-02-17T01:41:34.959Z,10.20
2023-02-17T01:44:13.363Z,10.20
2023-02-17T01:46:41.095Z,10.20
2023-02-17T01:49:37.757Z,10.20
2023-02-17T01:52:08.459Z,10.20
2023-02-17T01:54:43.905Z,10.20
2023-02-17T01:57:11.008Z,10.20
2023-02-17T01:59:37.692Z,10.20
2023-02-17T02:02:05.081Z,10.20
2023-02-17T02:04:33.747Z,10.20
2023-02-17T02:07:00.558Z,10.20
2023-02-17T02:09:36.716Z,10.20
2023-02-17T02:12:03.503Z,10.20
2023-02-17T02:14:30.120Z,10.20
2023-02-17T02:17:17.697Z,10.20
2023-02-17T02:20:02.587Z,10.20
2023-02-17T02:22:32.308Z,10.20
2023-02-17T02:25:29.165Z,10.20
2023-02-17T02:28:07.819Z,10.20
2023-02-17T02:31:05.051Z,10.20
2023-02-17T02:33:45.747Z,10.20
2023-02-17T02:36:18.086Z,10.10
2023-02-17T02:38:54.261Z,10.10
2023-02-17T02:41:35.776Z,10.10
2023-02-17T02:44:06.467Z,10.10
2023-02-17T02:46:33.173Z,10.10
2023-02-17T02:48:59.816Z,10.10
2023-02-17T02:51:44.510Z,10.10
2023-02-17T02:54:24.280Z,10.10
2023-02-17T02:57:03.150Z,10.10
2023-02-17T02:59:58.001Z,10.00
2023-02-17T03:02:32.376Z,10.00
2023-02-17T03:05:11.224Z,10.00
2023-02-17T03:07:45.229Z,10.00
2023-02-17T03:10:11.927Z,10.10
2023-02-17T03:12:38.658Z,10.10
2023-02-17T03:15:19.769Z,10.10
2023-02-17T03:17:46.446Z,10.00
2023-02-17T03:20:13.586Z,10.10
2023-02-17T03:22:41.701Z,10.10
2023-02-17T03:25:08.398Z,10.00
2023-02-17T03:27:35.044Z,10.10
2023-02-17T03:30:01.819Z,10.00
2023-02-17T03:32:28.482Z,10.10
2023-02-17T03:34:55.112Z,10.10
2023-02-17T03:37:21.833Z,10.10
2023-02-17T03:39:48.519Z,10.00
2023-02-17T03:42:15.125Z,10.10
2023-02-17T03:44:41.719Z,10.00
2023-02-17T03:47:08.378Z,10.00
2023-02-17T03:49:35.098Z,10.00
2023-02-17T03:52:01.781Z,10.00
2023-02-17T03:54:28.539Z,10.00
2023-02-17T03:56:55.270Z,10.00
2023-02-17T03:59:21.926Z,10.00
2023-02-17T04:01:48.574Z,10.00
2023-02-17T04:04:15.293Z,10.00
2023-02-17T04:06:42.041Z,10.00
2023-02-17T04:09:08.668Z,10.00
2023-02-17T04:11:35.916Z,10.00
2023-02-17T04:14:02.509Z,10.00
2023-02-17T04:16:29.155Z,10.00
2023-02-17T04:18:55.853Z,10.00
2023-02-17T04:21:22.501Z,10.00
2023-02-17T04:23:49.114Z,10.00
2023-02-17T04:26:15.768Z,10.00
2023-02-17T04:28:42.652Z,10.00
2023-02-17T04:31:09.575Z,10.00
2023-02-17T04:33:36.399Z,10.00
2023-02-17T04:36:03.341Z,10.00
2023-02-17T04:38:31.302Z,9.90
2023-02-17T04:40:58.377Z,9.90
2023-02-17T04:43:25.662Z,9.90
2023-02-17T04:45:52.448Z,9.80
2023-02-17T04:48:19.224Z,9.80
2023-02-17T04:50:46.112Z,9.80
2023-02-17T04:53:13.108Z,9.80
2023-02-17T04:55:40.357Z,9.80
2023-02-17T04:58:07.080Z,9.80
2023-02-17T05:00:33.675Z,9.70
2023-02-17T05:03:00.382Z,9.70
2023-02-17T05:05:27.005Z,9.70
2023-02-17T05:07:53.675Z,9.70
2023-02-17T05:10:21.638Z,9.70
2023-02-17T05:12:49.212Z,9.70
2023-02-17T05:15:15.928Z,9.70
2023-02-17T05:17:42.561Z,9.70
2023-02-17T05:20:09.567Z,9.70
2023-02-17T05:22:36.336Z,9.70
2023-02-17T05:25:03.276Z,9.70
2023-02-17T05:27:29.981Z,9.70
2023-02-17T05:29:56.755Z,9.70
2023-02-17T05:32:23.607Z,9.70
2023-02-17T05:34:50.367Z,9.70
2023-02-17T05:37:17.114Z,9.70
2023-02-17T05:39:43.764Z,9.70
2023-02-17T05:42:10.457Z,9.70
2023-02-17T05:44:37.096Z,9.80
2023-02-17T05:47:03.840Z,9.80
2023-02-17T05:49:30.498Z,9.80
2023-02-17T05:51:57.156Z,9.80
2023-02-17T05:54:23.785Z,9.80
2023-02-17T05:56:50.498Z,9.80
2023-02-17T05:59:17.234Z,9.80
2023-02-17T06:01:45.411Z,9.80
2023-02-17T06:04:12.065Z,9.90
2023-02-17T06:06:38.760Z,9.90
2023-02-17T06:09:05.396Z,9.90
2023-02-17T06:11:32.194Z,9.90
2023-02-17T06:13:58.857Z,9.90
2023-02-17T06:16:25.687Z,9.90
2023-02-17T06:18:52.357Z,9.90
2023-02-17T06:21:19.024Z,9.90
2023-02-17T06:23:45.700Z,9.90
2023-02-17T06:26:12.445Z,9.90
2023-02-17T06:28:39.157Z,9.90
2023-02-17T06:31:06.171Z,9.90
2023-02-17T06:33:32.819Z,9.90
2023-02-17T06:35:59.615Z,9.90
2023-02-17T06:38:26.570Z,9.90
2023-02-17T06:40:53.644Z,10.00
2023-02-17T06:43:20.630Z,10.00
2023-02-17T06:45:47.471Z,10.00
2023-02-17T06:48:16.500Z,10.00
2023-02-17T06:50:43.141Z,10.00
2023-02-17T06:53:09.890Z,10.00
2023-02-17T06:55:36.618Z,10.10
2023-02-17T06:58:03.345Z,10.10
2023-02-17T07:00:30.097Z,10.10
2023-02-17T07:02:56.858Z,10.10
2023-02-17T07:05:23.594Z,10.10
2023-02-17T07:07:50.294Z,10.10
2023-02-17T07:10:17.022Z,10.10
2023-02-17T07:12:43.642Z,10.10
2023-02-17T07:15:12.278Z,10.10
2023-02-17T07:17:39.240Z,10.20
2023-02-17T07:20:06.743Z,10.20
2023-02-17T07:22:33.358Z,10.20
2023-02-17T07:25:00.115Z,10.20
2023-02-17T07:27:26.770Z,10.20
2023-02-17T07:29:53.411Z,10.30
2023-02-17T07:32:20.194Z,10.30
2023-02-17T07:34:46.997Z,10.30
2023-02-17T07:37:13.650Z,10.30
2023-02-17T07:39:40.315Z,10.30
2023-02-17T07:42:07.178Z,10.40
2023-02-17T07:44:33.823Z,10.40
2023-02-17T07:47:00.628Z,10.40
2023-02-17T07:49:27.276Z,10.40
2023-02-17T07:51:53.905Z,10.40
2023-02-17T07:54:20.732Z,10.40
2023-02-17T07:56:47.344Z,10.40
2023-02-17T07:59:14.122Z,10.50
2023-02-17T08:01:41.006Z,10.50
2023-02-17T08:04:07.772Z,10.50
2023-02-17T08:06:34.495Z,10.50
2023-02-17T08:09:01.148Z,10.50
2023-02-17T08:11:27.872Z,10.50
2023-02-17T08:13:54.539Z,10.50
2023-02-17T08:16:21.217Z,10.60
2023-02-17T08:18:47.863Z,10.60
2023-02-17T08:21:14.574Z,10.50
2023-02-17T08:23:41.234Z,10.60
2023-02-17T08:26:08.640Z,10.60
2023-02-17T08:28:35.480Z,10.60
2023-02-17T08:31:02.246Z,10.60
2023-02-17T08:33:29.079Z,10.60
2023-02-17T08:35:55.699Z,10.70
2023-02-17T08:38:22.398Z,10.70
2023-02-17T08:40:49.097Z,10.70
2023-02-17T08:43:15.748Z,10.80
2023-02-17T08:45:42.465Z,10.80
2023-02-17T08:48:09.098Z,10.80
2023-02-17T08:50:35.733Z,10.80
2023-02-17T08:53:02.380Z,10.80
2023-02-17T08:55:33.472Z,10.80
2023-02-17T08:58:07.524Z,10.80
2023-02-17T09:00:34.259Z,10.80
2023-02-17T09:03:00.999Z,10.80
2023-02-17T09:05:27.716Z,10.90
2023-02-17T09:07:57.031Z,10.90
2023-02-17T09:10:23.698Z,10.90
2023-02-17T09:12:50.364Z,10.90
2023-02-17T09:15:17.073Z,10.90
2023-02-17T09:17:43.849Z,10.90
2023-02-17T09:20:23.828Z,10.90
2023-02-17T09:22:52.498Z,10.90
2023-02-17T09:25:19.326Z,11.00
2023-02-17T09:27:46.156Z,11.00
2023-02-17T09:30:13.441Z,11.00
2023-02-17T09:32:43.440Z,11.00
2023-02-17T09:35:14.173Z,11.00
2023-02-17T09:37:40.878Z,11.10
2023-02-17T09:40:08.957Z,11.10
2023-02-17T09:42:38.472Z,11.10
2023-02-17T09:45:08.341Z,11.10
2023-02-17T09:47:44.815Z,11.20
2023-02-17T09:50:44.128Z,11.20
2023-02-17T09:53:39.157Z,11.10
2023-02-17T09:56:07.504Z,11.20
2023-02-17T09:58:39.127Z,11.10
2023-02-17T10:01:08.402Z,11.20
2023-02-17T10:03:52.107Z,11.20
2023-02-17T10:06:29.398Z,11.20
2023-02-17T10:09:18.781Z,11.20
2023-02-17T10:12:06.965Z,11.20
2023-02-17T10:14:55.137Z,11.30
2023-02-17T10:17:43.505Z,11.30
2023-02-17T10:20:14.388Z,11.30
2023-02-17T10:22:43.943Z,11.30
2023-02-17T10:25:19.085Z,11.30
2023-02-17T10:27:48.773Z,11.30
2023-02-17T10:30:38.795Z,11.30
2023-02-17T10:33:11.451Z,11.30
2023-02-17T10:35:44.245Z,11.40
2023-02-17T10:38:16.222Z,11.40
2023-02-17T10:40:42.855Z,11.50
2023-02-17T10:43:09.505Z,11.50
2023-02-17T10:45:37.771Z,11.50
2023-02-17T10:48:26.062Z,11.60
2023-02-17T10:50:52.799Z,11.60
2023-02-17T10:53:23.830Z,11.50
2023-02-17T10:55:53.512Z,11.50
2023-02-17T10:58:25.372Z,11.60
2023-02-17T11:00:54.207Z,11.60
2023-02-17T11:03:21.826Z,11.60
2023-02-17T11:06:02.209Z,11.60
2023-02-17T11:08:39.757Z,11.70
2023-02-17T11:11:17.532Z,11.70
2023-02-17T11:13:46.640Z,11.70
2023-02-17T11:16:25.405Z,11.80
2023-02-17T11:18:52.124Z,11.80
2023-02-17T11:21:18.871Z,11.80
2023-02-17T11:23:51.554Z,11.80
2023-02-17T11:26:22.908Z,11.90
2023-02-17T11:28:49.742Z,11.90
2023-02-17T11:31:23.926Z,11.90
2023-02-17T11:33:50.639Z,12.00
2023-02-17T11:36:29.686Z,12.00
2023-02-17T11:38:56.371Z,12.00
2023-02-17T11:41:23.420Z,12.00
2023-02-17T11:43:57.624Z,12.00
2023-02-17T11:46:35.948Z,11.90
2023-02-17T11:49:29.863Z,11.90
2023-02-17T11:52:01.244Z,11.90
2023-02-17T11:54:59.167Z,11.90
2023-02-17T11:57:53.244Z,11.90
2023-02-17T12:00:25.291Z,11.90
2023-02-17T12:03:04.157Z,11.90
2023-02-17T12:05:33.740Z,12.00
2023-02-17T12:08:32.101Z,12.00
2023-02-17T12:11:08.701Z,12.10
2023-02-17T12:13:57.512Z,12.10
2023-02-17T12:16:39.040Z,12.10
2023-02-17T12:19:54.086Z,12.10
2023-02-17T12:22:41.218Z,12.10
2023-02-17T12:25:26.334Z,12.10
2023-02-17T12:28:01.845Z,12.10
2023-02-17T12:30:53.625Z,12.20
2023-02-17T12:33:50.389Z,12.20
2023-02-17T12:36:17.654Z,12.20
2023-02-17T12:38:45.688Z,12.20
2023-02-17T12:41:30.754Z,12.20
2023-02-17T12:44:00.042Z,12.20
2023-02-17T12:46:40.186Z,12.30
2023-02-17T12:49:20.215Z,12.30
2023-02-17T12:51:49.951Z,12.30
2023-02-17T12:54:28.829Z,12.30
2023-02-17T12:57:10.618Z,12.30
2023-02-17T12:59:39.153Z,12.40
2023-02-17T13:02:11.077Z,12.50
2023-02-17T13:04:37.912Z,12.60
2023-02-17T13:07:24.797Z,12.70
2023-02-17T13:09:51.419Z,12.70
2023-02-17T13:12:31.843Z,12.70
2023-02-17T13:15:00.435Z,12.70
2023-02-17T13:17:27.029Z,12.60
2023-02-17T13:20:11.825Z,12.50
2023-02-17T13:22:39.155Z,12.50
2023-02-17T13:25:05.946Z,12.40
2023-02-17T13:27:36.831Z,12.40
2023-02-17T13:30:21.969Z,12.30
2023-02-17T13:32:59.689Z,12.30
2023-02-17T13:35:26.331Z,12.20
2023-02-17T13:37:53.006Z,12.20
2023-02-17T13:40:19.614Z,12.10
2023-02-17T13:42:50.309Z,12.10
2023-02-17T13:45:27.719Z,12.00
2023-02-17T13:47:56.233Z,12.00
2023-02-17T13:50:36.355Z,12.00
2023-02-17T13:53:06.320Z,12.00
2023-02-17T13:55:33.037Z,12.00
2023-02-17T13:57:59.747Z,12.00
2023-02-17T14:00:30.395Z,12.00
2023-02-17T14:03:12.210Z,12.00
2023-02-17T14:05:43.105Z,12.00
2023-02-17T14:08:34.826Z,12.00
2023-02-17T14:11:10.365Z,12.00
2023-02-17T14:13:37.728Z,12.00
2023-02-17T14:16:05.558Z,11.90
2023-02-17T14:18:37.818Z,11.90
2023-02-17T14:21:25.237Z,11.90
2023-02-17T14:23:53.491Z,11.90
2023-02-17T14:26:37.111Z,11.90
2023-02-17T14:29:05.448Z,11.90
2023-02-17T14:31:43.331Z,11.90
2023-02-17T14:34:34.039Z,11.90
2023-02-17T14:37:16.073Z,12.00
2023-02-17T14:39:42.631Z,12.00
2023-02-17T14:42:09.385Z,12.00
2023-02-17T14:44:35.977Z,11.90
2023-02-17T14:47:02.730Z,11.90
2023-02-17T14:49:29.365Z,12.00
2023-02-17T14:51:56.436Z,11.90
2023-02-17T14:54:25.944Z,12.00
2023-02-17T14:57:11.290Z,12.00
2023-02-17T14:59:37.994Z,12.00
2023-02-17T15:02:11.551Z,12.10
2023-02-17T15:04:38.213Z,12.20
2023-02-17T15:07:04.883Z,12.30
2023-02-17T15:09:31.579Z,12.30
2023-02-17T15:11:58.413Z,12.30
2023-02-17T15:14:25.196Z,12.20
2023-02-17T15:16:51.878Z,12.20
2023-02-17T15:19:18.651Z,12.10
2023-02-17T15:21:49.917Z,12.10
2023-02-17T15:24:19.147Z,12.10
2023-02-17T15:26:45.822Z,12.10
2023-02-17T15:29:17.099Z,12.00
2023-02-17T15:31:43.894Z,12.00
2023-02-17T15:34:13.854Z,12.00
2023-02-17T15:36:40.512Z,12.00
2023-02-17T15:39:10.223Z,12.00
2023-02-17T15:41:36.894Z,12.00
2023-02-17T15:44:03.577Z,12.00
2023-02-17T15:46:31.277Z,12.00
2023-02-17T15:48:58.061Z,11.90
2023-02-17T15:51:24.701Z,11.90
2023-02-17T15:53:51.521Z,11.80
2023-02-17T15:56:20.538Z,11.80
2023-02-17T15:58:47.843Z,11.70
2023-02-17T16:01:18.706Z,11.70
2023-02-17T16:03:45.391Z,11.70
2023-02-17T16:06:12.021Z,11.70
2023-02-17T16:08:44.495Z,11.70
2023-02-17T16:11:14.378Z,11.70
2023-02-17T16:13:41.462Z,11.70
2023-02-17T16:16:28.911Z,11.70
2023-02-17T16:18:55.584Z,11.60
2023-02-17T16:21:22.209Z,11.60
2023-02-17T16:23:48.996Z,11.60
2023-02-17T16:26:36.015Z,11.60
2023-02-17T16:29:04.198Z,11.60
2023-02-17T16:31:31.818Z,11.50
2023-02-17T16:33:58.598Z,11.50
2023-02-17T16:36:25.365Z,11.50
2023-02-17T16:38:51.983Z,11.50
2023-02-17T16:41:19.764Z,11.50
2023-02-17T16:43:46.420Z,11.40
2023-02-17T16:46:40.968Z,11.40
2023-02-17T16:49:19.322Z,11.40
2023-02-17T16:51:46.151Z,11.40
2023-02-17T16:54:12.876Z,11.30
2023-02-17T16:56:43.334Z,11.30
2023-02-17T16:59:14.493Z,11.20
2023-02-17T17:01:41.302Z,11.20
2023-02-17T17:04:07.927Z,11.20
2023-02-17T17:06:34.655Z,11.20
2023-02-17T17:09:01.411Z,11.10
2023-02-17T17:11:28.043Z,11.10
2023-02-17T17:13:54.791Z,11.10
2023-02-17T17:16:26.092Z,11.10
2023-02-17T17:18:52.791Z,11.10
2023-02-17T17:21:19.614Z,11.10
2023-02-17T17:23:46.464Z,11.10
2023-02-17T17:26:33.393Z,11.10
2023-02-17T17:29:00.133Z,11.00
2023-02-17T17:31:27.115Z,11.00
2023-02-17T17:33:53.910Z,11.00
2023-02-17T17:36:32.327Z,11.00
2023-02-17T17:38:59.545Z,11.00
2023-02-17T17:41:26.641Z,11.00
2023-02-17T17:43:53.420Z,11.00
2023-02-17T17:46:30.262Z,11.00
2023-02-17T17:48:57.569Z,11.00
2023-02-17T17:51:24.438Z,11.00
2023-02-17T17:53:51.144Z,11.00
2023-02-17T17:56:26.396Z,11.00
2023-02-17T17:58:53.242Z,11.00
2023-02-17T18:01:20.358Z,11.00
2023-02-17T18:03:47.167Z,11.00
2023-02-17T18:06:20.014Z,10.90
2023-02-17T18:08:46.929Z,11.00
2023-02-17T18:11:15.257Z,10.90
2023-02-17T18:13:42.226Z,10.90
2023-02-17T18:16:09.271Z,10.90
2023-02-17T18:18:36.235Z,10.80
2023-02-17T18:21:02.924Z,10.80
2023-02-17T18:23:29.584Z,10.90
2023-02-17T18:25:56.296Z,10.90
2023-02-17T18:28:22.890Z,10.80
2023-02-17T18:30:49.612Z,10.90
2023-02-17T18:33:16.295Z,10.90
2023-02-17T18:35:42.924Z,10.80
2023-02-17T18:38:09.611Z,10.90
2023-02-17T18:40:41.314Z,10.90
2023-02-17T18:43:08.506Z,10.90
2023-02-17T18:45:35.276Z,10.90
2023-02-17T18:48:01.946Z,10.90
2023-02-17T18:50:28.600Z,10.90
2023-02-17T18:52:55.237Z,10.90
2023-02-17T18:55:21.916Z,10.80
2023-02-17T18:57:48.572Z,10.80
2023-02-17T19:00:15.895Z,10.80
2023-02-17T19:02:42.609Z,10.80
2023-02-17T19:05:09.804Z,10.70
2023-02-17T19:07:36.479Z,10.70
2023-02-17T19:10:03.892Z,10.70
2023-02-17T19:12:30.526Z,10.70
2023-02-17T19:14:57.203Z,10.70
2023-02-17T19:17:24.107Z,10.60
2023-02-17T19:19:51.003Z,10.60
2023-02-17T19:22:17.876Z,10.70
2023-02-17T19:24:44.960Z,10.60
2023-02-17T19:27:11.728Z,10.60
2023-02-17T19:29:38.460Z,10.60
2023-02-17T19:32:05.193Z,10.60
2023-02-17T19:34:31.885Z,10.60
2023-02-17T19:36:58.568Z,10.60
2023-02-17T19:39:25.217Z,10.60
2023-02-17T19:41:51.896Z,10.60
2023-02-17T19:44:18.492Z,10.60
2023-02-17T19:46:45.119Z,10.60
2023-02-17T19:49:11.712Z,10.60
2023-02-17T19:51:38.375Z,10.60
2023-02-17T19:54:05.018Z,10.60
2023-02-17T19:56:32.397Z,10.60
2023-02-17T19:58:59.221Z,10.60
2023-02-17T20:01:30.217Z,10.60
2023-02-17T20:03:57.303Z,10.60
2023-02-17T20:06:26.346Z,10.70
2023-02-17T20:08:54.744Z,10.70
2023-02-17T20:11:21.438Z,10.70
2023-02-17T20:13:48.069Z,10.70
2023-02-17T20:16:15.534Z,10.70
2023-02-17T20:18:43.629Z,10.70
2023-02-17T20:21:11.393Z,10.70
2023-02-17T20:23:38.180Z,10.70
2023-02-17T20:26:06.541Z,10.70
2023-02-17T20:28:33.717Z,10.70
2023-02-17T20:31:00.727Z,10.70
2023-02-17T20:33:27.454Z,10.70
2023-02-17T20:35:54.121Z,10.70
2023-02-17T20:38:20.778Z,10.60
2023-02-17T20:40:47.450Z,10.60
2023-02-17T20:43:14.104Z,10.60
2023-02-17T20:45:41.199Z,10.60
2023-02-17T20:48:07.874Z,10.60
2023-02-17T20:50:34.596Z,10.60
2023-02-17T20:53:01.353Z,10.60
2023-02-17T20:55:28.036Z,10.60
2023-02-17T20:57:54.710Z,10.50
2023-02-17T21:00:23.084Z,10.60
2023-02-17T21:02:49.752Z,10.60
2023-02-17T21:05:16.478Z,10.60
2023-02-17T21:07:43.078Z,10.60
2023-02-17T21:10:13.921Z,10.60
2023-02-17T21:12:40.515Z,10.60
2023-02-17T21:15:07.500Z,10.60
2023-02-17T21:17:34.136Z,10.60
2023-02-17T21:20:00.831Z,10.60
2023-02-17T21:22:27.460Z,10.60
2023-02-17T21:24:54.132Z,10.60
2023-02-17T21:27:20.777Z,10.60
2023-02-17T21:29:47.492Z,10.60
2023-02-17T21:32:14.365Z,10.60
2023-02-17T21:34:41.071Z,10.60
2023-02-17T21:37:07.856Z,10.60
2023-02-17T21:39:35.176Z,10.60
2023-02-17T21:42:01.800Z,10.60
2023-02-17T21:44:28.452Z,10.60
2023-02-17T21:46:55.105Z,10.60
2023-02-17T21:49:21.738Z,10.60
2023-02-17T21:51:48.443Z,10.60
2023-02-17T21:54:15.276Z,10.60
2023-02-17T21:56:41.912Z,10.60
2023-02-17T21:59:08.672Z,10.60
2023-02-17T22:01:35.413Z,10.60
2023-02-17T22:04:02.108Z,10.60
2023-02-17T22:06:30.675Z,10.60
2023-02-17T22:08:57.717Z,10.70
2023-02-17T22:11:26.026Z,10.70
2023-02-17T22:13:56.893Z,10.70
2023-02-17T22:16:24.014Z,10.70
2023-02-17T22:18:51.137Z,10.70
2023-02-17T22:21:17.832Z,10.70
2023-02-17T22:23:44.531Z,10.70
2023-02-17T22:26:13.915Z,10.70
2023-02-17T22:28:40.618Z,10.70
2023-02-17T22:31:07.387Z,10.70
2023-02-17T22:33:34.194Z,10.70
2023-02-17T22:36:06.428Z,10.70
2023-02-17T22:38:33.392Z,10.70
2023-02-17T22:41:00.173Z,10.70
2023-02-17T22:43:26.790Z,10.70
2023-02-17T22:45:59.951Z,10.70
2023-02-17T22:48:27.479Z,10.70
2023-02-17T22:50:54.083Z,10.70
2023-02-17T22:53:20.877Z,10.70
2023-02-17T22:55:54.920Z,10.70
2023-02-17T22:58:21.939Z,10.70
2023-02-17T23:00:48.720Z,10.70
2023-02-17T23:03:16.376Z,10.70
2023-02-17T23:05:43.008Z,10.70
2023-02-17T23:08:10.495Z,10.70
2023-02-17T23:10:41.515Z,10.70
2023-02-17T23:13:08.322Z,10.70
2023-02-17T23:15:35.140Z,10.70
2023-02-17T23:18:01.736Z,10.80
2023-02-17T23:20:28.359Z,10.70
2023-02-17T23:22:54.948Z,10.70
2023-02-17T23:25:21.600Z,10.80
2023-02-17T23:27:48.260Z,10.80
2023-02-17T23:30:19.649Z,10.80
2023-02-17T23:32:46.322Z,10.80
2023-02-17T23:35:13.102Z,10.80
2023-02-17T23:37:39.721Z,10.80
2023-02-17T23:40:06.956Z,10.80
2023-02-17T23:42:33.740Z,10.80
2023-02-17T23:45:00.338Z,10.80
2023-02-17T23:47:27.077Z,10.80
2023-02-17T23:49:53.693Z,10.80
2023-02-17T23:52:21.464Z,10.80
2023-02-17T23:54:48.101Z,10.80
2023-02-17T23:57:14.721Z,10.80
2023-02-17T23:59:41.408Z,10.80
